createdAt,value
2023-01-03T00:02:01.301Z,100847.09
2023-01-03T00:04:28.590Z,100840.46
2023-01-03T00:06:55.650Z,100841.69
2023-01-03T00:09:24.138Z,100848.45
2023-01-03T00:12:11.761Z,100852.11
2023-01-03T00:14:41.252Z,100854.45
2023-01-03T00:17:09.834Z,100855.14
2023-01-03T00:19:40.176Z,100854.67
2023-01-03T00:22:08.277Z,100851.50
2023-01-03T00:24:35.696Z,100852.25
2023-01-03T00:27:02.945Z,100852.33
2023-01-03T00:29:33.487Z,100851.70
2023-01-03T00:32:00.843Z,100852.13
2023-01-03T00:34:28.196Z,100866.97
2023-01-03T00:36:55.794Z,100866.14
2023-01-03T00:39:24.124Z,100871.48
2023-01-03T00:41:51.794Z,100877.81
2023-01-03T00:44:19.567Z,100886.07
2023-01-03T00:46:46.497Z,100888.66
2023-01-03T00:49:13.535Z,100893.36
2023-01-03T00:51:41.509Z,100894.19
2023-01-03T00:54:10.110Z,100897.61
2023-01-03T00:56:43.839Z,100894.04
2023-01-03T00:59:12.179Z,100902.91
2023-01-03T01:01:46.780Z,100907.55
2023-01-03T01:04:22.454Z,100910.94
2023-01-03T01:06:56.384Z,100912.99
2023-01-03T01:09:26.249Z,100916.42
2023-01-03T01:11:54.258Z,100923.65
2023-01-03T01:14:23.237Z,100923.46
2023-01-03T01:16:57.640Z,100932.77
2023-01-03T01:19:28.099Z,100938.58
2023-01-03T01:21:55.964Z,100939.16
2023-01-03T01:24:22.873Z,100947.09
2023-01-03T01:26:50.048Z,100946.51
2023-01-03T01:29:18.431Z,100945.83
2023-01-03T01:31:46.205Z,100945.11
2023-01-03T01:34:14.069Z,100948.83
2023-01-03T01:36:42.293Z,100954.85
2023-01-03T01:39:18.223Z,100953.79
2023-01-03T01:42:05.500Z,100954.65
2023-01-03T01:44:54.281Z,100954.47
2023-01-03T01:47:27.667Z,100949.41
2023-01-03T01:50:10.295Z,100953.70
2023-01-03T01:52:41.937Z,100960.55
2023-01-03T01:55:13.320Z,100953.30
2023-01-03T01:57:41.601Z,100960.54
2023-01-03T02:00:10.049Z,100964.17
2023-01-03T02:02:46.356Z,100969.59
2023-01-03T02:05:17.355Z,100968.67
2023-01-03T02:07:48.493Z,100972.73
2023-01-03T02:10:15.860Z,100976.84
2023-01-03T02:13:08.327Z,100979.39
2023-01-03T02:15:38.231Z,100977.03
2023-01-03T02:18:32.930Z,100977.77
2023-01-03T02:21:20.317Z,100978.23
2023-01-03T02:23:49.921Z,100983.28
2023-01-03T02:26:57.512Z,100997.96
2023-01-03T02:29:43.219Z,100999.40
2023-01-03T02:32:24.089Z,100993.20
2023-01-03T02:35:03.210Z,100993.35
2023-01-03T02:37:49.208Z,101000.77
2023-01-03T02:40:25.163Z,101004.16
2023-01-03T02:43:05.171Z,100999.20
2023-01-03T02:46:06.604Z,101002.50
2023-01-03T02:48:41.592Z,100999.66
2023-01-03T02:51:33.535Z,101004.11
2023-01-03T02:54:03.125Z,101010.77
2023-01-03T02:56:59.589Z,101020.23
2023-01-03T02:59:37.903Z,101022.90
2023-01-03T03:02:06.613Z,101032.13
2023-01-03T03:04:36.270Z,101037.27
2023-01-03T03:07:11.022Z,101042.55
2023-01-03T03:09:57.933Z,101040.33
2023-01-03T03:12:46.886Z,101035.72
2023-01-03T03:15:17.085Z,101039.11
2023-01-03T03:17:46.759Z,101044.47
2023-01-03T03:20:35.269Z,101048.44
2023-01-03T03:23:30.799Z,101051.25
2023-01-03T03:26:11.673Z,101054.19
2023-01-03T03:28:43.858Z,101055.61
2023-01-03T03:31:23.194Z,101053.90
2023-01-03T03:34:11.086Z,101055.25
2023-01-03T03:36:53.513Z,101058.23
2023-01-03T03:39:40.431Z,101060.81
2023-01-03T03:42:54.881Z,101063.69
2023-01-03T03:45:32.475Z,101065.90
2023-01-03T03:48:12.147Z,101073.00
2023-01-03T03:50:50.836Z,101080.23
2023-01-03T03:53:24.024Z,101077.89
2023-01-03T03:55:56.113Z,101080.87
2023-01-03T03:58:29.116Z,101078.67
2023-01-03T04:00:57.325Z,101084.63
2023-01-03T04:03:25.564Z,101087.71
2023-01-03T04:06:13.544Z,101091.77
2023-01-03T04:08:40.908Z,101095.84
2023-01-03T04:11:08.265Z,101097.17
2023-01-03T04:13:37.660Z,101099.83
2023-01-03T04:16:06.674Z,101097.11
2023-01-03T04:18:34.725Z,101091.82
2023-01-03T04:21:01.669Z,101095.36
2023-01-03T04:23:28.719Z,101104.56
2023-01-03T04:25:55.556Z,101106.34
2023-01-03T04:28:22.772Z,101106.95
2023-01-03T04:30:50.162Z,101107.68
2023-01-03T04:33:17.304Z,101112.54
2023-01-03T04:35:44.251Z,101117.80
2023-01-03T04:38:11.330Z,101122.48
2023-01-03T04:40:38.455Z,101124.16
2023-01-03T04:43:24.653Z,101122.51
2023-01-03T04:45:51.760Z,101131.27
2023-01-03T04:48:20.501Z,101134.77
2023-01-03T04:50:57.663Z,101141.73
2023-01-03T04:53:26.983Z,101137.75
2023-01-03T04:55:58.490Z,101140.43
2023-01-03T04:58:26.307Z,101134.25
2023-01-03T05:00:59.965Z,101132.19
2023-01-03T05:03:28.273Z,101133.45
2023-01-03T05:06:07.095Z,101136.95
2023-01-03T05:08:34.973Z,101136.10
2023-01-03T05:11:03.044Z,101136.43
2023-01-03T05:13:31.000Z,101137.13
2023-01-03T05:16:10.575Z,101139.45
2023-01-03T05:18:38.829Z,101144.20
2023-01-03T05:21:32.896Z,101148.05
2023-01-03T05:24:18.485Z,101148.99
2023-01-03T05:26:46.040Z,101152.14
2023-01-03T05:29:17.717Z,101154.63
2023-01-03T05:31:44.955Z,101152.81
2023-01-03T05:34:11.976Z,101157.29
2023-01-03T05:36:39.180Z,101160.00
2023-01-03T05:39:06.463Z,101160.84
2023-01-03T05:41:52.787Z,101166.17
2023-01-03T05:44:19.754Z,101168.04
2023-01-03T05:46:47.628Z,101176.74
2023-01-03T05:49:14.609Z,101181.30
2023-01-03T05:51:41.611Z,101183.73
2023-01-03T05:54:15.003Z,101181.34
2023-01-03T05:56:42.669Z,101189.94
2023-01-03T05:59:10.428Z,101181.15
2023-01-03T06:01:38.161Z,101191.05
2023-01-03T06:04:05.270Z,101195.55
2023-01-03T06:06:33.788Z,101198.08
2023-01-03T06:09:01.474Z,101205.34
2023-01-03T06:11:28.750Z,101208.18
2023-01-03T06:13:56.004Z,101209.61
2023-01-03T06:16:55.590Z,101209.48
2023-01-03T06:19:24.707Z,101216.95
2023-01-03T06:21:51.784Z,101211.10
2023-01-03T06:24:18.797Z,101218.55
2023-01-03T06:26:46.152Z,101222.15
2023-01-03T06:29:13.192Z,101226.06
2023-01-03T06:31:41.702Z,101229.05
2023-01-03T06:34:09.447Z,101233.45
2023-01-03T06:36:37.111Z,101237.11
2023-01-03T06:39:05.513Z,101241.26
2023-01-03T06:41:32.835Z,101245.80
2023-01-03T06:44:00.947Z,101248.84
2023-01-03T06:46:48.515Z,101251.95
2023-01-03T06:49:37.538Z,101259.45
2023-01-03T06:52:32.018Z,101259.17
2023-01-03T06:55:00.493Z,101257.45
2023-01-03T06:57:27.949Z,101261.09
2023-01-03T06:59:55.395Z,101259.59
2023-01-03T07:02:22.825Z,101261.41
2023-01-03T07:04:50.348Z,101264.80
2023-01-03T07:07:17.566Z,101268.19
2023-01-03T07:09:45.334Z,101269.73
2023-01-03T07:12:32.160Z,101278.46
2023-01-03T07:14:59.103Z,101283.63
2023-01-03T07:17:26.346Z,101288.39
2023-01-03T07:19:53.386Z,101289.23
2023-01-03T07:22:20.707Z,101293.41
2023-01-03T07:24:48.012Z,101305.85
2023-01-03T07:27:15.278Z,101309.48
2023-01-03T07:29:42.497Z,101307.42
2023-01-03T07:32:09.861Z,101308.50
2023-01-03T07:34:36.897Z,101314.08
2023-01-03T07:37:04.664Z,101315.33
2023-01-03T07:39:32.257Z,101313.77
2023-01-03T07:42:17.845Z,101314.80
2023-01-03T07:44:46.083Z,101318.99
2023-01-03T07:47:14.469Z,101324.42
2023-01-03T07:49:42.222Z,101322.20
2023-01-03T07:52:09.690Z,101322.48
2023-01-03T07:54:37.049Z,101327.73
2023-01-03T07:57:05.519Z,101328.11
2023-01-03T07:59:32.732Z,101329.11
2023-01-03T08:02:00.000Z,101329.67
2023-01-03T08:04:27.856Z,101336.67
2023-01-03T08:06:55.348Z,101338.58
2023-01-03T08:09:41.258Z,101340.71
2023-01-03T08:12:28.962Z,101342.91
2023-01-03T08:14:56.807Z,101345.83
2023-01-03T08:17:24.611Z,101346.60
2023-01-03T08:19:51.736Z,101348.33
2023-01-03T08:22:18.796Z,101353.64
2023-01-03T08:24:45.821Z,101352.75
2023-01-03T08:27:12.882Z,101356.74
2023-01-03T08:29:40.352Z,101362.98
2023-01-03T08:32:07.608Z,101365.80
2023-01-03T08:34:38.348Z,101362.46
2023-01-03T08:37:09.850Z,101363.95
2023-01-03T08:39:42.420Z,101365.45
2023-01-03T08:42:12.606Z,101365.49
2023-01-03T08:44:41.150Z,101370.20
2023-01-03T08:47:08.834Z,101371.67
2023-01-03T08:49:36.807Z,101374.63
2023-01-03T08:52:05.477Z,101377.52
2023-01-03T08:54:32.747Z,101382.80
2023-01-03T08:57:00.111Z,101385.77
2023-01-03T08:59:27.252Z,101394.38
2023-01-03T09:02:01.617Z,101398.09
2023-01-03T09:04:29.225Z,101401.27
2023-01-03T09:06:57.096Z,101402.17
2023-01-03T09:09:24.337Z,101400.96
2023-01-03T09:11:52.188Z,101407.39
2023-01-03T09:14:19.864Z,101406.23
2023-01-03T09:16:49.321Z,101412.70
2023-01-03T09:19:17.485Z,101412.69
2023-01-03T09:21:44.581Z,101414.70
2023-01-03T09:24:11.972Z,101422.34
2023-01-03T09:26:39.931Z,101405.08
2023-01-03T09:29:07.178Z,101421.55
2023-01-03T09:31:35.164Z,101419.00
2023-01-03T09:34:04.906Z,101416.65
2023-01-03T09:36:34.452Z,101417.31
2023-01-03T09:39:01.615Z,101413.64
2023-01-03T09:41:28.957Z,101416.47
2023-01-03T09:44:00.856Z,101418.67
2023-01-03T09:46:30.697Z,101420.35
2023-01-03T09:48:59.964Z,101415.32
2023-01-03T09:51:53.974Z,101415.04
2023-01-03T09:54:55.353Z,101414.64
2023-01-03T09:57:43.516Z,101413.35
2023-01-03T10:00:51.860Z,101414.41
2023-01-03T10:03:37.669Z,101418.05
2023-01-03T10:06:08.273Z,101420.94
2023-01-03T10:08:51.315Z,101420.05
2023-01-03T10:11:26.047Z,101421.10
2023-01-03T10:14:11.816Z,101421.66
2023-01-03T10:17:16.929Z,101425.67
2023-01-03T10:19:57.414Z,101425.19
2023-01-03T10:22:30.622Z,101423.95
2023-01-03T10:25:05.014Z,101424.61
2023-01-03T10:27:44.973Z,101417.55
2023-01-03T10:30:16.263Z,101419.21
2023-01-03T10:33:02.376Z,101419.45
2023-01-03T10:35:33.382Z,101419.91
2023-01-03T10:38:01.103Z,101418.39
2023-01-03T10:40:42.619Z,101415.95
2023-01-03T10:43:45.863Z,101406.56
2023-01-03T10:46:18.427Z,101408.18
2023-01-03T10:51:43.006Z,101405.64
2023-01-03T10:54:17.809Z,101406.95
2023-01-03T10:56:49.956Z,101405.44
2023-01-03T10:59:26.266Z,101406.33
2023-01-03T11:02:08.375Z,101399.48
2023-01-03T11:04:35.850Z,101410.77
2023-01-03T11:07:08.696Z,101413.85
2023-01-03T11:09:50.460Z,101411.56
2023-01-03T11:12:38.094Z,101412.69
2023-01-03T11:15:37.978Z,101413.00
2023-01-03T11:18:20.240Z,101417.26
2023-01-03T11:21:11.822Z,101412.07
2023-01-03T11:23:55.354Z,101407.58
2023-01-03T11:26:59.593Z,101411.40
2023-01-03T11:30:18.940Z,101406.77
2023-01-03T11:33:05.142Z,101405.55
2023-01-03T11:36:10.799Z,101399.85
2023-01-03T11:39:00.894Z,101399.25
2023-01-03T11:42:02.243Z,101396.27
2023-01-03T11:44:41.379Z,101399.10
2023-01-03T11:47:50.200Z,101392.79
2023-01-03T11:51:02.713Z,101396.52
2023-01-03T11:53:49.928Z,101400.02
2023-01-03T11:56:35.402Z,101401.67
2023-01-03T11:59:56.609Z,101400.64
2023-01-03T12:02:35.893Z,101396.45
2023-01-03T12:05:24.722Z,101395.80
2023-01-03T12:08:16.363Z,101397.72
2023-01-03T12:10:59.354Z,101397.55
2023-01-03T12:13:54.386Z,101397.51
2023-01-03T12:16:29.397Z,101391.09
2023-01-03T12:19:05.675Z,101394.76
2023-01-03T12:21:48.019Z,101390.48
2023-01-03T12:24:29.550Z,101387.39
2023-01-03T12:27:04.600Z,101385.55
2023-01-03T12:29:50.997Z,101391.25
2023-01-03T12:32:53.841Z,101387.52
2023-01-03T12:35:24.837Z,101384.63
2023-01-03T12:37:52.576Z,101380.30
2023-01-03T12:40:22.901Z,101385.52
2023-01-03T12:42:55.796Z,101396.76
2023-01-03T12:45:32.819Z,101396.37
2023-01-03T12:48:08.834Z,101389.33
2023-01-03T12:50:50.935Z,101389.64
2023-01-03T12:53:25.255Z,101389.85
2023-01-03T12:56:06.630Z,101382.04
2023-01-03T12:58:41.376Z,101385.02
2023-01-03T13:01:15.206Z,101385.38
2023-01-03T13:03:52.226Z,101384.40
2023-01-03T13:06:19.294Z,101378.30
2023-01-03T13:08:52.285Z,101380.34
2023-01-03T13:11:35.428Z,101377.34
2023-01-03T13:14:17.922Z,101379.11
2023-01-03T13:16:48.309Z,101377.10
2023-01-03T13:19:35.776Z,101370.61
2023-01-03T13:22:34.492Z,101373.00
2023-01-03T13:25:26.392Z,101374.97
2023-01-03T13:27:57.426Z,101378.98
2023-01-03T13:30:31.755Z,101376.98
2023-01-03T13:33:04.940Z,101374.36
2023-01-03T13:35:56.770Z,101376.41
2023-01-03T13:38:29.131Z,101365.27
2023-01-03T13:41:18.831Z,101365.39
2023-01-03T13:43:50.231Z,101365.23
2023-01-03T13:46:30.829Z,101370.50
2023-01-03T13:49:07.560Z,101372.94
2023-01-03T13:51:40.700Z,101369.98
2023-01-03T13:54:10.935Z,101373.84
2023-01-03T13:56:43.989Z,101384.69
2023-01-03T13:59:14.352Z,101387.36
2023-01-03T14:01:43.953Z,101387.52
2023-01-03T14:04:54.415Z,101393.88
2023-01-03T14:07:50.660Z,101394.20
2023-01-03T14:10:32.967Z,101395.16
2023-01-03T14:13:12.188Z,101400.82
2023-01-03T14:15:39.303Z,101399.95
2023-01-03T14:18:25.729Z,101401.83
2023-01-03T14:20:56.528Z,101407.39
2023-01-03T14:26:16.886Z,101404.79
2023-01-03T14:28:52.917Z,101413.11
2023-01-03T14:31:23.705Z,101411.91
2023-01-03T14:34:02.409Z,101412.80
2023-01-03T14:36:29.556Z,101412.67
2023-01-03T14:39:01.918Z,101415.70
2023-01-03T14:41:35.681Z,101414.35
2023-01-03T14:44:23.626Z,101416.38
2023-01-03T14:46:54.745Z,101422.86
2023-01-03T14:49:41.227Z,101428.34
2023-01-03T14:52:25.474Z,101428.39
2023-01-03T14:55:00.112Z,101424.42
2023-01-03T14:57:31.535Z,101426.86
2023-01-03T15:00:01.073Z,101432.29
2023-01-03T15:02:33.731Z,101433.95
2023-01-03T15:05:02.305Z,101442.48
2023-01-03T15:07:42.863Z,101445.07
2023-01-03T15:10:10.218Z,101445.08
2023-01-03T15:12:49.177Z,101454.98
2023-01-03T15:15:19.564Z,101455.97
2023-01-03T15:17:50.015Z,101456.67
2023-01-03T15:20:20.792Z,101457.82
2023-01-03T15:22:48.156Z,101458.73
2023-01-03T15:25:26.353Z,101460.19
2023-01-03T15:27:54.595Z,101457.54
2023-01-03T15:30:25.304Z,101454.31
2023-01-03T15:32:54.416Z,101458.95
2023-01-03T15:35:32.308Z,101458.52
2023-01-03T15:38:02.706Z,101459.85
2023-01-03T15:40:31.526Z,101460.04
2023-01-03T15:43:21.092Z,101460.80
2023-01-03T15:45:59.474Z,101464.05
2023-01-03T15:48:28.009Z,101465.46
2023-01-03T15:50:58.192Z,101467.85
2023-01-03T15:53:44.097Z,101473.21
2023-01-03T15:56:24.025Z,101475.82
2023-01-03T15:58:55.227Z,101478.36
2023-01-03T16:01:24.636Z,101482.98
2023-01-03T16:03:54.179Z,101490.39
2023-01-03T16:06:23.438Z,101490.20
2023-01-03T16:08:53.052Z,101490.05
2023-01-03T16:11:31.498Z,101490.14
2023-01-03T16:14:07.740Z,101493.64
2023-01-03T16:16:41.557Z,101493.08
2023-01-03T16:19:20.417Z,101494.16
2023-01-03T16:22:24.507Z,101501.27
2023-01-03T16:24:43.669Z,101502.95
2023-01-03T16:27:21.499Z,101501.48
2023-01-03T16:29:49.612Z,101503.27
2023-01-03T16:32:23.403Z,101502.05
2023-01-03T16:34:52.923Z,101501.75
2023-01-03T16:37:21.146Z,101500.23
2023-01-03T16:39:48.990Z,101498.81
2023-01-03T16:42:17.798Z,101499.31
2023-01-03T16:44:47.414Z,101496.79
2023-01-03T16:47:22.814Z,101498.32
2023-01-03T16:49:57.150Z,101501.64
2023-01-03T16:52:27.767Z,101502.35
2023-01-03T16:54:56.168Z,101498.65
2023-01-03T16:57:24.750Z,101493.58
2023-01-03T16:59:53.660Z,101496.35
2023-01-03T17:02:22.041Z,101499.66
2023-01-03T17:04:52.623Z,101506.09
2023-01-03T17:07:25.057Z,101505.52
2023-01-03T17:09:53.910Z,101503.55
2023-01-03T17:12:24.239Z,101503.11
2023-01-03T17:14:53.294Z,101508.97
2023-01-03T17:17:23.036Z,101508.36
2023-01-03T17:20:06.659Z,101509.85
2023-01-03T17:22:34.935Z,101512.58
2023-01-03T17:25:02.284Z,101514.42
2023-01-03T17:27:32.898Z,101502.48
2023-01-03T17:30:06.598Z,101509.22
2023-01-03T17:32:34.084Z,101510.26
2023-01-03T17:35:04.516Z,101514.28
2023-01-03T17:37:40.895Z,101512.73
2023-01-03T17:40:32.943Z,101517.16
2023-01-03T17:43:02.264Z,101521.14
2023-01-03T17:45:48.915Z,101521.08
2023-01-03T17:48:35.444Z,101525.99
2023-01-03T17:51:03.777Z,101528.40
2023-01-03T17:53:31.592Z,101531.31
2023-01-03T17:55:59.234Z,101533.38
2023-01-03T17:58:35.616Z,101537.66
2023-01-03T18:01:05.369Z,101542.98
2023-01-03T18:03:33.237Z,101548.71
2023-01-03T18:06:06.297Z,101551.46
2023-01-03T18:08:34.404Z,101555.27
2023-01-03T18:11:01.719Z,101554.98
2023-01-03T18:13:36.032Z,101554.95
2023-01-03T18:16:04.488Z,101551.80
2023-01-03T18:18:32.657Z,101550.27
2023-01-03T18:21:00.537Z,101549.41
2023-01-03T18:23:33.315Z,101547.80
2023-01-03T18:26:11.037Z,101546.55
2023-01-03T18:28:38.490Z,101546.38
2023-01-03T18:31:06.843Z,101547.77
2023-01-03T18:33:34.429Z,101552.84
2023-01-03T18:36:02.931Z,101554.46
2023-01-03T18:38:41.368Z,101552.87
2023-01-03T18:41:17.561Z,101554.80
2023-01-03T18:43:45.330Z,101552.39
2023-01-03T18:46:15.735Z,101553.05
2023-01-03T18:48:44.402Z,101556.34
2023-01-03T18:51:17.712Z,101540.96
2023-01-03T18:53:53.307Z,101559.11
2023-01-03T18:56:43.423Z,101561.86
2023-01-03T18:59:26.369Z,101564.25
2023-01-03T19:01:55.944Z,101567.80
2023-01-03T19:04:24.182Z,101566.66
2023-01-03T19:06:52.276Z,101566.09
2023-01-03T19:09:26.387Z,101566.13
2023-01-03T19:11:54.906Z,101565.34
2023-01-03T19:14:24.329Z,101560.43
2023-01-03T19:16:53.451Z,101560.54
2023-01-03T19:19:21.339Z,101557.25
2023-01-03T19:21:49.345Z,101559.80
2023-01-03T19:24:34.729Z,101561.77
2023-01-03T19:27:11.333Z,101562.95
2023-01-03T19:29:40.137Z,101566.53
2023-01-03T19:32:20.188Z,101564.53
2023-01-03T19:34:47.738Z,101567.61
2023-01-03T19:37:16.825Z,101569.38
2023-01-03T19:39:44.292Z,101558.95
2023-01-03T19:42:33.259Z,101567.94
2023-01-03T19:45:07.568Z,101567.58
2023-01-03T19:47:35.602Z,101565.55
2023-01-03T19:50:28.219Z,101557.81
2023-01-03T19:52:56.590Z,101569.55
2023-01-03T19:55:30.625Z,101568.90
2023-01-03T19:58:05.727Z,101567.98
2023-01-03T20:00:37.923Z,101563.92
2023-01-03T20:03:13.894Z,101568.65
2023-01-03T20:05:42.317Z,101568.02
2023-01-03T20:08:12.715Z,101570.41
2023-01-03T20:10:45.179Z,101568.59
2023-01-03T20:13:35.742Z,101560.88
2023-01-03T20:16:05.161Z,101574.52
2023-01-03T20:18:35.894Z,101575.84
2023-01-03T20:21:10.797Z,101570.32
2023-01-03T20:23:43.593Z,101564.17
2023-01-03T20:26:28.632Z,101564.79
2023-01-03T20:29:00.756Z,101564.89
2023-01-03T20:31:29.738Z,101563.38
2023-01-03T20:33:59.177Z,101563.95
2023-01-03T20:36:36.103Z,101570.70
2023-01-03T20:39:04.609Z,101564.48
2023-01-03T20:41:38.573Z,101561.91
2023-01-03T20:44:10.293Z,101566.11
2023-01-03T20:46:39.571Z,101566.25
2023-01-03T20:49:15.983Z,101566.83
2023-01-03T20:51:44.500Z,101550.09
2023-01-03T20:54:12.080Z,101569.81
2023-01-03T20:56:40.018Z,101564.27
2023-01-03T20:59:08.646Z,101553.85
2023-01-03T21:01:37.766Z,101560.20
2023-01-03T21:04:06.692Z,101560.81
2023-01-03T21:06:34.144Z,101557.03
2023-01-03T21:09:01.813Z,101560.32
2023-01-03T21:11:44.103Z,101560.22
2023-01-03T21:14:14.466Z,101565.60
2023-01-03T21:16:48.792Z,101567.33
2023-01-03T21:19:21.530Z,101569.42
2023-01-03T21:21:52.461Z,101565.70
2023-01-03T21:24:22.385Z,101569.52
2023-01-03T21:26:49.731Z,101565.48
2023-01-03T21:29:17.083Z,101560.85
2023-01-03T21:31:45.695Z,101554.58
2023-01-03T21:34:19.943Z,101559.80
2023-01-03T21:36:48.656Z,101559.75
2023-01-03T21:39:16.780Z,101559.98
2023-01-03T21:42:03.814Z,101554.66
2023-01-03T21:44:31.641Z,101555.11
2023-01-03T21:46:59.821Z,101553.29
2023-01-03T21:49:28.477Z,101550.55
2023-01-03T21:51:55.740Z,101552.04
2023-01-03T21:54:23.295Z,101556.45
2023-01-03T21:56:51.483Z,101555.05
2023-01-03T21:59:19.358Z,101552.98
2023-01-03T22:02:05.805Z,101549.73
2023-01-03T22:04:34.275Z,101553.41
2023-01-03T22:07:01.938Z,101548.42
2023-01-03T22:09:49.224Z,101555.15
2023-01-03T22:12:17.517Z,101555.52
2023-01-03T22:14:45.651Z,101555.35
2023-01-03T22:17:12.756Z,101557.45
2023-01-03T22:19:39.972Z,101558.37
2023-01-03T22:22:07.233Z,101549.55
2023-01-03T22:24:34.371Z,101547.54
2023-01-03T22:27:01.533Z,101546.59
2023-01-03T22:29:28.457Z,101545.05
2023-01-03T22:31:55.569Z,101550.98
2023-01-03T22:34:22.966Z,101548.38
2023-01-03T22:36:49.888Z,101550.04
2023-01-03T22:39:16.943Z,101555.17
2023-01-03T22:41:43.935Z,101559.30
2023-01-03T22:44:10.865Z,101556.74
2023-01-03T22:46:38.956Z,101552.24
2023-01-03T22:49:06.130Z,101556.25
2023-01-03T22:51:33.021Z,101555.08
2023-01-03T22:54:00.163Z,101552.20
2023-01-03T22:56:27.267Z,101548.64
2023-01-03T22:58:54.047Z,101546.34
2023-01-03T23:01:26.818Z,101541.05
2023-01-03T23:03:55.007Z,101544.48
2023-01-03T23:06:21.829Z,101549.45
2023-01-03T23:08:51.762Z,101547.33
2023-01-03T23:11:41.762Z,101544.61
2023-01-03T23:14:17.810Z,101548.81
2023-01-03T23:16:46.037Z,101551.43
2023-01-03T23:19:15.699Z,101549.02
2023-01-03T23:21:44.892Z,101549.04
2023-01-03T23:24:17.767Z,101546.73
2023-01-03T23:26:45.233Z,101547.43
2023-01-03T23:29:14.460Z,101544.19
2023-01-03T23:31:42.298Z,101541.98
2023-01-03T23:34:12.934Z,101541.96
2023-01-03T23:36:42.330Z,101541.67
2023-01-03T23:39:14.701Z,101533.25
2023-01-03T23:41:42.994Z,101529.75
2023-01-03T23:44:11.555Z,101526.91
2023-01-03T23:46:38.716Z,101528.49
2023-01-03T23:49:05.594Z,101529.66
2023-01-03T23:51:32.513Z,101529.53
2023-01-03T23:53:59.868Z,101526.52
2023-01-03T23:56:26.918Z,101526.30
2023-01-03T23:58:54.053Z,101522.23
